createdAt,value
2019-01-23T00:00:56.915Z,-2.00
2019-01-23T00:03:27.502Z,-2.00
2019-01-23T00:05:57.698Z,-2.00
2019-01-23T00:08:28.151Z,-2.00
2019-01-23T00:10:58.740Z,-2.00
2019-01-23T00:13:29.133Z,-2.00
2019-01-23T00:16:00.001Z,-2.00
2019-01-23T00:18:32.338Z,-2.00
2019-01-23T00:21:03.547Z,-2.10
2019-01-23T00:23:34.164Z,-2.10
2019-01-23T00:26:04.919Z,-2.10
2019-01-23T00:28:35.295Z,-2.10
2019-01-23T00:31:05.545Z,-2.00
2019-01-23T20:06:10.375Z,-4.40
2019-01-23T20:08:40.221Z,-4.40
2019-01-23T20:11:10.034Z,-4.50
2019-01-23T20:13:39.916Z,-4.50
2019-01-23T20:16:09.919Z,-4.60
2019-01-23T20:18:39.881Z,-4.60
2019-01-23T20:21:09.706Z,-4.60
2019-01-23T20:23:39.618Z,-4.70
2019-01-23T20:26:09.636Z,-4.70
2019-01-23T20:28:44.181Z,-4.70
2019-01-23T20:31:28.484Z,-4.70
2019-01-23T20:33:58.463Z,-4.80
2019-01-23T20:36:28.332Z,-4.90
2019-01-23T20:38:58.295Z,-4.90
2019-01-23T20:41:28.098Z,-4.90
2019-01-23T20:43:57.873Z,-5.00
2019-01-23T20:46:27.718Z,-5.00
2019-01-23T20:49:01.621Z,-5.10
2019-01-23T20:51:31.435Z,-5.10
2019-01-23T20:54:04.230Z,-5.20
2019-01-23T20:56:33.997Z,-5.20
2019-01-23T20:59:03.790Z,-5.30
2019-01-23T21:01:33.743Z,-5.30
2019-01-23T21:04:03.621Z,-5.40
2019-01-23T21:06:33.571Z,-5.40
2019-01-23T21:09:09.452Z,-5.40
2019-01-23T21:11:41.756Z,-5.40
2019-01-23T21:14:14.720Z,-5.50
2019-01-23T21:16:47.469Z,-5.50
2019-01-23T21:19:17.665Z,-5.50
2019-01-23T21:21:47.636Z,-5.50
2019-01-23T21:24:17.467Z,-5.50
2019-01-23T21:26:47.778Z,-5.50
2019-01-23T21:29:17.875Z,-5.50
2019-01-23T21:31:47.695Z,-5.50
2019-01-23T21:34:18.169Z,-5.60
2019-01-23T21:36:57.813Z,-5.60
2019-01-23T21:39:28.980Z,-5.70
2019-01-23T21:41:58.807Z,-5.70
2019-01-23T21:44:28.643Z,-5.70
2019-01-23T21:46:58.558Z,-5.70
2019-01-23T21:49:28.386Z,-5.80
2019-01-23T21:51:58.150Z,-5.80
2019-01-23T21:54:29.706Z,-5.80
2019-01-23T21:56:59.525Z,-5.90
2019-01-23T21:59:29.268Z,-5.90
2019-01-23T22:02:01.972Z,-5.90
2019-01-23T22:04:32.350Z,-6.00
2019-01-23T22:07:02.133Z,-6.00
2019-01-23T22:09:31.936Z,-6.00
2019-01-23T22:12:01.737Z,-6.00
2019-01-23T22:14:31.549Z,-5.90
2019-01-23T22:17:01.375Z,-5.90
2019-01-23T22:19:31.269Z,-5.80
2019-01-23T22:22:01.035Z,-5.80
2019-01-23T22:24:30.823Z,-5.90
2019-01-23T22:27:00.705Z,-5.80
2019-01-23T22:29:30.482Z,-5.90
2019-01-23T22:32:00.358Z,-5.90
2019-01-23T22:34:30.114Z,-5.90
2019-01-23T22:36:59.952Z,-5.90
2019-01-23T22:39:29.762Z,-5.90
2019-01-23T22:41:59.551Z,-5.70
2019-01-23T22:44:29.318Z,-5.40
2019-01-23T22:46:59.198Z,-5.20
2019-01-23T22:49:28.965Z,-4.90
2019-01-23T22:51:58.736Z,-4.70
2019-01-23T22:54:28.562Z,-4.60
2019-01-23T22:56:58.358Z,-4.40
2019-01-23T22:59:28.218Z,-4.40
2019-01-23T23:01:59.607Z,-4.30
2019-01-23T23:04:29.500Z,-4.30
2019-01-23T23:06:59.314Z,-4.20
2019-01-23T23:09:29.173Z,-4.10
2019-01-23T23:11:58.990Z,-4.00
2019-01-23T23:14:31.725Z,-3.90
2019-01-23T23:17:01.504Z,-3.90
2019-01-23T23:19:31.274Z,-4.00
2019-01-23T23:22:01.031Z,-4.00
2019-01-23T23:24:32.936Z,-4.10
2019-01-23T23:27:02.807Z,-3.90
2019-01-23T23:29:32.717Z,-3.80
2019-01-23T23:32:02.731Z,-3.80
2019-01-23T23:34:32.645Z,-3.80
2019-01-23T23:37:02.625Z,-3.70
2019-01-23T23:39:32.442Z,-3.60
2019-01-23T23:42:02.352Z,-3.50
2019-01-23T23:44:32.130Z,-3.60
2019-01-23T23:47:02.025Z,-3.60
2019-01-23T23:49:31.932Z,-3.60
2019-01-23T23:52:01.921Z,-3.40
2019-01-23T23:54:31.714Z,-3.40
2019-01-23T23:57:01.552Z,-3.40
2019-01-23T23:59:31.422Z,-3.30
